Sinking Spring, OH (45172)

1:13 AM EDT on March 30, 2015 (GMT -0400)
Peebles High School | | Change Station
CLOSE
Current Station
Personal Weather Station
Location: Peebles, OH
Elevation: 840 ft
Nearby Weather Stations

Elev 840 ft 38.94 °N, 83.42 °W | Updated 3 minutes ago

Overcast
Overcast
41.7 °F
Feels Like 42 °F
N
2.0
Wind Variable Wind from SSE

Today
High -- | Low -- °F
--% Chance of Precip.
Yesterday
High -- | Low -- °F
Precip. -- in
7:21 AM 7:54 PM
Waxing Gibbous, 77% visible
Pressure 29.99 in
Visibility 10.0 miles
Clouds Mostly Cloudy 4000 ft
Overcast 6500 ft
Windchill 42 °F
Dew Point 28 °F
Humidity 59%
Rainfall 0.00 in
Snow Depth Not available.
UV 0 out of 12
Pollen 8.20 out of 12
Air Quality Not available.
Flu Activity Not available.
METAR KILN 300454Z AUTO 22010KT 10SM BKN040 OVC065 06/02 A2993 RMK AO2 SLP153 T00560017 400781061 $

More Conditions Fewer Conditions

Pressure 29.99 in
Visibility 10.0 miles
Clouds Mostly Cloudy 4000 ft
Overcast 6500 ft
Windchill 42 °F
Dew Point 28 °F
Humidity 59%
Rainfall 0.00 in
Snow Depth Not available.
UV 0 out of 12
Pollen 8.20 out of 12
Air Quality Not available.
Flu Activity Not available.
METAR KILN 300454Z AUTO 22010KT 10SM BKN040 OVC065 06/02 A2993 RMK AO2 SLP153 T00560017 400781061 $

More Conditions Fewer Conditions

10-Day Weather Forecast

Almanac

Astronomy

Mar. 30, 2015 Rise Set
Actual Time
Civil Twilight
Nautical Twilight
Astronomical Twilight
Moon
Length of Visible Light
Length of Day
Tomorrow will be .
, % of the Moon is Illuminated

Today's Extremes

State Highs State Lows

Community

WunderPhotos

Upload Photos

1,809,437 photos uploaded!

WunderBlogs® & News

Nearby

Air Quality

  Air Quality AQ Index Pollutant
Not available.

Snow Depth

Station Depth Elevation

Earthquake Activity

City Distance Mag. Time & Date
Minimum magnitude displayed is 2.5.

Coastal Water Temperatures

Place Temperature

Stations

Nearby Weather Stations

Station Location Temp. Windchill Dew Point Humidity Wind Precip. Elev Updated Type